Airfield :
LOGIN :

Register | Disclaimer

   EN    FR    IT 

 










Legend :    VFR   Marginal VFR   IFR   Intensive IFR   Very Intensive IFR
Visi :
Ceiling :
>= 8 km
>= 3000ft
5 to 8 km
1000 to 3000 ft
1500m to 5 km
500 to 1000 ft
800 to 1500m
200 to 500 ft
< 800m
< 200 ft
Symbols :   Thunderstorms  Fog  Heavy snow  Heavy precipitations  Wind > 20 kt
SIGMETs :     Misc.  Thunderstorms  Icing  Turbulence  Mountain Waves  Volcanic Ashes







- Airport Elevation : 38 ft
- IATA code : ADX


EGQL - RAF Leuchars

CURRENT METAR :
  • 191550Z 25012KT 9999 FEW020 BKN100 08/04 Q1010 BLU

EXPIRED METARs :
  • 191450Z 25015KT 9999 FEW020 BKN100 08/03 Q1010 BLU
  • 191350Z 25015KT 9999 FEW020 SCT080 09/04 Q1010 BLU

TAF TAF EGQL
Valid from the 19 at 15:00 until the 20 at 00:00 UTC


191339Z 1915/1924 21009KT 9999 FEW018 BKN035
BECMG 1917/1919 BKN020
TEMPO 1919/1924 7000 RA SCT012
No reported NOTAMs for that airfield.



MET'MAP, your aeronautical weather chart ! - Copyright ORBIFLY December 2007 - Disclaimer

ORBIFLY MET'MAP TEAM :

Programming & Development : Alexandra Zaïnal
Concept & Development : Baudouin d'Aumeries
Co-Development & Prog : Marc-Olivier Méhu
Technical & hardware support : Manuel Goepfert

Contact : metmap@orbifly.com




SOURCES & CREDITS :

   NOAA